createdAt,value
2023-01-21T00:01:13.162Z,7.45
2023-01-21T00:04:04.832Z,7.67
2023-01-21T00:09:38.994Z,9.63
2023-01-21T00:12:30.567Z,10.80
2023-01-21T00:15:22.198Z,8.53
2023-01-21T00:18:14.055Z,9.33
2023-01-21T00:21:09.145Z,9.35
2023-01-21T00:26:45.270Z,9.63
2023-01-21T00:29:36.872Z,9.60
2023-01-21T00:32:28.310Z,7.83
2023-01-21T00:52:52.037Z,9.25
2023-01-21T00:55:43.670Z,7.70
2023-01-21T00:58:35.882Z,8.30
2023-01-21T01:01:29.531Z,7.75
2023-01-21T01:07:56.083Z,7.95
2023-01-21T01:10:47.708Z,6.42
2023-01-21T01:13:40.802Z,7.00
2023-01-21T01:16:32.614Z,9.70
2023-01-21T01:19:24.319Z,7.45
2023-01-21T01:22:16.057Z,7.10
2023-01-21T01:25:08.765Z,5.85
2023-01-21T01:28:00.387Z,6.87
2023-01-21T01:37:02.989Z,6.75
2023-01-21T01:39:54.446Z,8.25
2023-01-21T01:42:46.271Z,6.85
2023-01-21T01:45:50.985Z,6.53
2023-01-21T01:48:49.421Z,7.85
2023-01-21T01:51:46.167Z,7.10
2023-01-21T01:54:40.990Z,5.80
2023-01-21T01:57:36.605Z,4.75
2023-01-21T02:03:30.560Z,8.50
2023-01-21T02:09:17.576Z,6.62
2023-01-21T02:12:10.275Z,6.00
2023-01-21T02:15:02.249Z,6.30
2023-01-21T02:18:04.583Z,5.70
2023-01-21T02:28:35.429Z,5.72
2023-01-21T02:31:57.339Z,5.00
2023-01-21T02:34:51.791Z,5.42
2023-01-21T02:37:46.694Z,6.95
2023-01-21T02:40:40.419Z,4.95
2023-01-21T02:43:36.772Z,5.83
2023-01-21T03:00:55.447Z,5.47
2023-01-21T03:06:46.353Z,5.28
2023-01-21T03:09:38.691Z,7.45
2023-01-21T03:12:35.154Z,4.53
2023-01-21T03:15:47.221Z,4.75
2023-01-21T03:18:42.117Z,4.87
2023-01-21T03:21:35.842Z,7.58
2023-01-21T03:27:18.047Z,4.42
2023-01-21T03:30:14.558Z,5.58
2023-01-21T03:33:07.147Z,4.33
2023-01-21T03:36:04.663Z,6.50
2023-01-21T03:41:40.360Z,4.65
2023-01-21T03:47:31.508Z,6.55
2023-01-21T03:50:26.398Z,4.80
2023-01-21T03:53:18.326Z,5.30
2023-01-21T04:09:49.813Z,4.65
2023-01-21T04:12:41.726Z,3.92
2023-01-21T04:18:55.185Z,5.40
2023-01-21T04:21:47.059Z,4.67
2023-01-21T04:27:19.281Z,4.00
2023-01-21T04:30:12.937Z,3.15
2023-01-21T04:33:04.801Z,4.50
2023-01-21T04:35:59.776Z,4.87
2023-01-21T04:38:51.413Z,3.83
2023-01-21T04:41:43.018Z,4.95
2023-01-21T04:44:34.995Z,4.60
2023-01-21T04:47:26.647Z,6.00
2023-01-21T04:50:19.270Z,4.90
2023-01-21T04:53:11.324Z,4.75
2023-01-21T04:56:03.083Z,3.95
2023-01-21T05:01:38.453Z,4.28
2023-01-21T05:04:30.400Z,6.75
2023-01-21T05:07:22.387Z,5.15
2023-01-21T05:10:19.210Z,4.37
2023-01-21T05:13:11.224Z,6.53
2023-01-21T05:16:09.372Z,4.87
2023-01-21T05:51:41.679Z,5.03
2023-01-21T05:54:33.771Z,4.12
2023-01-21T05:57:25.570Z,3.67
2023-01-21T06:00:20.537Z,4.00
2023-01-21T06:03:11.999Z,3.95
2023-01-21T06:06:05.676Z,3.85
2023-01-21T06:08:57.067Z,5.20
2023-01-21T06:11:48.758Z,4.92
2023-01-21T07:32:06.587Z,3.42
2023-01-21T07:34:58.216Z,4.78
2023-01-21T07:41:18.162Z,4.35
2023-01-21T07:44:10.182Z,4.03
2023-01-21T07:47:01.990Z,5.87
2023-01-21T07:52:48.079Z,5.17
2023-01-21T07:58:52.849Z,6.30
2023-01-21T08:01:44.888Z,5.28
2023-01-21T08:04:36.470Z,4.90
2023-01-21T08:07:28.304Z,3.77
2023-01-21T08:10:22.476Z,5.42
2023-01-21T08:13:15.128Z,5.78
2023-01-21T08:16:07.900Z,4.33
2023-01-21T08:22:10.011Z,4.62
2023-01-21T08:25:01.660Z,4.60
2023-01-21T08:27:53.469Z,5.75
2023-01-21T08:30:45.667Z,5.40
2023-01-21T08:33:38.158Z,4.95
2023-01-21T08:36:29.689Z,6.78
2023-01-21T08:39:21.513Z,4.53
2023-01-21T08:42:13.123Z,5.67
2023-01-21T08:45:05.573Z,5.15
2023-01-21T08:47:57.812Z,4.87
2023-01-21T09:04:44.860Z,5.90
2023-01-21T09:07:36.760Z,7.00
2023-01-21T09:11:05.850Z,4.75
2023-01-21T18:43:00.940Z,5.78
2023-01-21T18:45:54.440Z,5.55
2023-01-21T18:48:48.475Z,4.62
2023-01-21T18:51:46.924Z,4.30
2023-01-21T18:54:35.660Z,4.75
2023-01-21T18:57:29.055Z,3.90
2023-01-21T19:00:28.270Z,3.75
2023-01-21T19:03:23.611Z,4.12
2023-01-21T19:06:18.334Z,5.58
2023-01-21T19:38:09.872Z,5.60
2023-01-21T19:41:01.810Z,6.92
2023-01-21T19:43:55.216Z,4.35
2023-01-21T19:46:47.330Z,5.20
2023-01-21T19:49:39.438Z,3.50
2023-01-21T19:52:35.604Z,6.40
2023-01-21T19:55:28.289Z,6.72
2023-01-21T19:58:25.103Z,7.03
2023-01-21T20:04:01.545Z,6.57
2023-01-21T20:06:56.113Z,6.80
2023-01-21T20:25:30.479Z,6.37
2023-01-21T20:28:24.951Z,6.62
2023-01-21T21:13:09.949Z,6.50
2023-01-21T21:16:01.617Z,5.92
2023-01-21T21:18:55.281Z,6.00
2023-01-21T21:21:48.424Z,3.72
2023-01-21T21:24:40.220Z,4.75
2023-01-21T21:27:33.803Z,6.95
2023-01-21T21:30:31.079Z,5.53
2023-01-21T21:51:22.433Z,9.03
2023-01-21T21:54:15.677Z,8.13
2023-01-21T21:57:10.850Z,9.50
2023-01-21T22:03:24.744Z,8.50
2023-01-21T22:06:18.725Z,8.48
2023-01-21T22:11:58.803Z,9.65
2023-01-21T22:14:54.659Z,10.05
2023-01-21T22:17:46.596Z,11.03
2023-01-21T22:23:38.549Z,6.28
2023-01-21T22:26:30.621Z,7.37
2023-01-21T22:29:24.796Z,7.03
2023-01-21T22:32:24.603Z,10.43
2023-01-21T22:35:16.397Z,10.53
2023-01-21T22:38:08.770Z,10.20
2023-01-21T22:41:02.445Z,11.40
2023-01-21T22:47:28.954Z,6.65
2023-01-21T22:50:21.098Z,8.35
2023-01-21T22:53:16.120Z,7.95
2023-01-21T22:56:12.038Z,9.28
